createdAt,value
2022-09-28T00:00:05.320Z,11.45
2022-09-28T00:02:42.042Z,8.57
2022-09-28T00:05:13.917Z,12.07
2022-09-28T00:07:43.899Z,10.52
2022-09-28T00:10:14.108Z,21.95
2022-09-28T00:12:44.143Z,6.32
2022-09-28T00:15:14.089Z,16.73
2022-09-28T00:17:46.126Z,11.70
2022-09-28T00:20:17.983Z,14.38
2022-09-28T00:22:48.013Z,13.55
2022-09-28T00:25:18.181Z,12.77
2022-09-28T00:27:52.265Z,21.48
2022-09-28T00:30:22.424Z,13.35
2022-09-28T00:32:52.487Z,14.82
2022-09-28T00:35:22.492Z,26.88
2022-09-28T00:37:53.335Z,19.42
2022-09-28T00:40:23.393Z,16.77
2022-09-28T00:42:53.380Z,19.17
2022-09-28T00:45:25.047Z,10.10
2022-09-28T00:47:57.016Z,15.50
2022-09-28T00:50:27.013Z,10.43
2022-09-28T00:53:02.963Z,14.30
2022-09-28T00:55:48.759Z,23.63
2022-09-28T00:58:32.346Z,12.23
2022-09-28T01:01:02.452Z,8.90
2022-09-28T01:03:32.516Z,12.30
2022-09-28T01:06:03.973Z,18.45
2022-09-28T01:08:34.061Z,19.23
2022-09-28T01:11:04.949Z,8.98
2022-09-28T01:13:34.954Z,14.77
2022-09-28T01:16:05.520Z,13.43
2022-09-28T01:18:35.602Z,22.25
2022-09-28T01:21:09.050Z,27.00
2022-09-28T01:23:39.410Z,21.55
2022-09-28T01:26:21.954Z,17.90
2022-09-28T01:28:52.333Z,18.55
2022-09-28T01:31:22.443Z,16.85
2022-09-28T01:34:03.221Z,16.98
2022-09-28T01:36:37.908Z,16.58
2022-09-28T01:39:15.739Z,15.57
2022-09-28T01:41:46.482Z,7.82
2022-09-28T01:44:17.317Z,12.75
2022-09-28T01:46:50.728Z,21.60
2022-09-28T01:49:21.589Z,19.30
2022-09-28T01:52:03.193Z,8.60
2022-09-28T01:54:33.632Z,17.83
2022-09-28T01:57:28.118Z,9.02
2022-09-28T02:00:01.041Z,11.70
2022-09-28T02:02:35.661Z,17.27
2022-09-28T02:05:08.895Z,13.35
2022-09-28T02:07:46.854Z,14.38
2022-09-28T02:10:25.824Z,23.90
2022-09-28T02:12:58.061Z,11.07
2022-09-28T02:15:33.255Z,11.65
2022-09-28T02:18:03.558Z,12.63
2022-09-28T02:20:34.060Z,13.02
2022-09-28T02:23:04.720Z,20.75
2022-09-28T02:26:01.019Z,23.27
2022-09-28T02:28:31.301Z,27.27
2022-09-28T02:31:01.388Z,17.70
2022-09-28T02:33:49.416Z,14.38
2022-09-28T02:36:22.089Z,13.95
2022-09-28T02:38:52.226Z,17.95
2022-09-28T02:41:40.641Z,15.52
2022-09-28T02:44:28.881Z,16.20
2022-09-28T02:46:58.843Z,11.73
2022-09-28T02:49:39.899Z,12.15
2022-09-28T02:52:28.668Z,15.55
2022-09-28T02:55:02.102Z,13.07
2022-09-28T02:57:50.719Z,11.48
2022-09-28T03:00:24.190Z,18.10
2022-09-28T03:02:57.329Z,8.45
2022-09-28T03:05:45.823Z,19.98
2022-09-28T03:08:19.784Z,22.73
2022-09-28T03:10:54.915Z,13.15
2022-09-28T03:13:28.745Z,17.33
2022-09-28T03:16:12.157Z,14.70
2022-09-28T03:18:44.107Z,6.07
2022-09-28T03:21:14.433Z,12.02
2022-09-28T03:23:45.420Z,16.10
2022-09-28T03:26:15.821Z,9.90
2022-09-28T03:28:46.367Z,13.00
2022-09-28T03:31:22.449Z,20.60
2022-09-28T03:33:54.189Z,15.43
2022-09-28T03:36:24.279Z,19.52
2022-09-28T03:38:58.228Z,14.15
2022-09-28T03:41:29.142Z,12.90
2022-09-28T03:43:59.970Z,11.70
2022-09-28T03:46:31.855Z,16.13
2022-09-28T03:49:07.421Z,21.25
2022-09-28T03:51:37.372Z,14.45
2022-09-28T03:54:07.392Z,8.50
2022-09-28T03:56:37.347Z,14.23
2022-09-28T03:59:07.920Z,10.20
2022-09-28T04:01:39.442Z,19.90
2022-09-28T04:04:10.186Z,16.42
2022-09-28T04:06:40.155Z,14.68
2022-09-28T04:09:10.170Z,19.58
2022-09-28T04:12:02.307Z,18.50
2022-09-28T04:14:31.101Z,22.17
2022-09-28T04:17:01.230Z,16.27
2022-09-28T04:19:32.441Z,13.75
2022-09-28T04:22:28.463Z,11.57
2022-09-28T04:24:58.535Z,10.15
2022-09-28T04:27:46.930Z,20.73
2022-09-28T04:30:17.101Z,16.52
2022-09-28T04:32:51.445Z,23.55
2022-09-28T04:35:21.461Z,27.27
2022-09-28T04:37:51.507Z,26.50
2022-09-28T04:40:21.611Z,29.25
2022-09-28T04:42:56.413Z,44.88
2022-09-28T04:45:28.663Z,32.53
2022-09-28T04:48:04.876Z,38.38
2022-09-28T04:50:58.898Z,30.08
2022-09-28T04:53:30.067Z,30.90
2022-09-28T04:56:00.630Z,24.33
2022-09-28T04:58:30.893Z,12.70
2022-09-28T05:01:02.282Z,3.33
2022-09-28T05:03:52.533Z,33.72
2022-09-28T05:06:51.943Z,57.38
2022-09-28T05:09:22.084Z,25.65
2022-09-28T05:11:54.278Z,15.07
2022-09-28T05:14:27.395Z,17.35
2022-09-28T05:16:57.529Z,6.45
2022-09-28T05:19:31.386Z,25.17
2022-09-28T05:22:06.783Z,19.10
2022-09-28T05:24:41.338Z,23.63
2022-09-28T05:27:12.252Z,32.92
2022-09-28T05:29:44.654Z,16.38
2022-09-28T05:32:33.172Z,34.63
2022-09-28T05:35:28.440Z,12.68
2022-09-28T05:37:59.050Z,19.90
2022-09-28T05:40:29.180Z,21.02
2022-09-28T05:43:03.171Z,15.90
2022-09-28T05:45:34.826Z,9.40
2022-09-28T05:48:06.543Z,5.70
2022-09-28T05:50:36.605Z,17.65
2022-09-28T05:53:07.488Z,19.80
2022-09-28T05:55:39.598Z,16.58
2022-09-28T05:58:10.087Z,27.58
2022-09-28T06:00:40.034Z,16.63
2022-09-28T06:03:11.081Z,14.38
2022-09-28T06:05:41.169Z,23.77
2022-09-28T06:08:12.729Z,13.93
2022-09-28T06:10:49.417Z,19.58
2022-09-28T06:13:19.948Z,15.30
2022-09-28T06:15:49.983Z,15.05
2022-09-28T06:18:21.434Z,10.27
2022-09-28T06:21:22.060Z,14.05
2022-09-28T06:23:55.196Z,13.07
2022-09-28T06:26:25.183Z,4.97
2022-09-28T06:28:55.187Z,6.13
2022-09-28T06:31:26.156Z,7.43
2022-09-28T06:33:57.118Z,4.43
2022-09-28T06:36:27.130Z,10.75
2022-09-28T06:38:57.154Z,10.20
2022-09-28T06:41:27.590Z,6.40
2022-09-28T06:44:03.311Z,17.05
2022-09-28T06:46:54.481Z,10.48
2022-09-28T06:49:44.028Z,6.53
2022-09-28T06:52:32.469Z,8.32
2022-09-28T06:55:16.820Z,5.53
2022-09-28T06:57:50.263Z,8.73
2022-09-28T07:00:20.962Z,9.52
2022-09-28T07:02:51.188Z,9.68
2022-09-28T07:05:46.506Z,5.22
2022-09-28T07:08:59.278Z,13.18
2022-09-28T07:12:00.797Z,47.38
2022-09-28T07:14:51.432Z,12.82
2022-09-28T07:17:21.741Z,5.32
2022-09-28T07:19:54.846Z,4.53
2022-09-28T07:22:39.659Z,4.40
2022-09-28T07:25:11.739Z,9.10
2022-09-28T07:27:44.648Z,7.88
2022-09-28T07:30:21.528Z,5.18
2022-09-28T07:33:10.643Z,7.25
2022-09-28T07:36:07.573Z,9.95
2022-09-28T07:38:39.534Z,10.40
2022-09-28T07:41:18.087Z,1.77
2022-09-28T07:43:51.076Z,8.73
2022-09-28T07:46:22.477Z,19.00
2022-09-28T07:49:01.913Z,9.18
2022-09-28T07:51:56.512Z,14.82
2022-09-28T07:54:41.696Z,36.13
2022-09-28T07:57:27.281Z,17.15
2022-09-28T08:00:10.181Z,13.02
2022-09-28T08:02:51.760Z,14.85
2022-09-28T08:05:25.752Z,14.50
2022-09-28T08:07:58.956Z,6.85
2022-09-28T08:10:31.320Z,5.97
2022-09-28T08:13:28.524Z,3.70
2022-09-28T08:16:09.623Z,9.40
2022-09-28T08:18:53.413Z,8.63
2022-09-28T08:21:42.291Z,14.35
2022-09-28T08:24:12.557Z,5.30
2022-09-28T08:26:44.268Z,9.98
2022-09-28T08:29:18.117Z,4.38
2022-09-28T08:32:09.994Z,7.95
2022-09-28T08:35:10.233Z,5.63
2022-09-28T08:37:58.354Z,8.52
2022-09-28T08:40:58.854Z,6.15
2022-09-28T08:43:57.749Z,5.00
2022-09-28T08:46:55.994Z,9.02
2022-09-28T08:49:43.379Z,6.97
2022-09-28T08:52:30.974Z,5.80
2022-09-28T08:55:27.474Z,6.38
2022-09-28T08:58:17.884Z,3.97
2022-09-28T09:00:49.599Z,2.47
2022-09-28T09:03:23.184Z,6.35
2022-09-28T09:06:18.266Z,5.07
2022-09-28T09:09:05.024Z,8.77
2022-09-28T09:11:39.621Z,6.82
2022-09-28T09:14:25.654Z,5.45
2022-09-28T09:17:16.592Z,8.10
2022-09-28T09:20:23.394Z,8.27
2022-09-28T09:23:04.054Z,8.65
2022-09-28T09:25:38.687Z,8.50
2022-09-28T09:28:20.377Z,5.80
2022-09-28T09:30:59.625Z,9.68
2022-09-28T09:33:47.237Z,3.83
2022-09-28T09:36:38.370Z,4.78
2022-09-28T09:39:35.468Z,6.65
2022-09-28T09:42:39.187Z,5.00
2022-09-28T09:45:30.659Z,6.10
2022-09-28T09:48:28.236Z,6.30
2022-09-28T09:51:00.296Z,5.00
2022-09-28T09:53:50.430Z,6.50
2022-09-28T09:56:29.814Z,11.48
2022-09-28T09:59:17.771Z,15.98
2022-09-28T10:02:22.907Z,3.85
2022-09-28T10:05:03.104Z,7.72
2022-09-28T10:07:44.018Z,6.85
2022-09-28T10:10:34.267Z,7.70
2022-09-28T10:13:11.257Z,3.90
2022-09-28T10:15:41.642Z,5.13
2022-09-28T10:18:31.726Z,8.27
2022-09-28T10:21:20.881Z,2.40
2022-09-28T10:24:00.139Z,6.63
2022-09-28T10:26:38.396Z,4.28
2022-09-28T10:29:15.705Z,12.32
2022-09-28T10:31:46.705Z,11.87
2022-09-28T10:34:29.876Z,21.17
2022-09-28T10:37:07.071Z,23.70
2022-09-28T10:39:57.025Z,14.65
2022-09-28T10:42:33.849Z,8.93
2022-09-28T10:45:15.050Z,8.25
2022-09-28T10:47:46.213Z,8.45
2022-09-28T10:50:28.731Z,22.88
2022-09-28T10:53:27.690Z,10.15
2022-09-28T10:56:24.090Z,11.73
2022-09-28T10:59:00.887Z,11.25
2022-09-28T11:01:47.531Z,16.13
2022-09-28T11:04:21.652Z,10.63
2022-09-28T11:06:52.611Z,15.60
2022-09-28T11:09:31.099Z,9.85
2022-09-28T11:12:07.595Z,9.82
2022-09-28T11:14:42.371Z,12.68
2022-09-28T11:17:41.178Z,12.48
2022-09-28T11:20:28.691Z,10.35
2022-09-28T11:23:21.584Z,8.02
2022-09-28T11:25:58.380Z,9.82
2022-09-28T11:28:31.388Z,4.15
2022-09-28T11:31:03.746Z,10.70
2022-09-28T11:33:41.085Z,12.35
2022-09-28T11:36:40.066Z,12.63
2022-09-28T11:39:30.289Z,10.77
2022-09-28T11:42:10.979Z,7.60
2022-09-28T11:44:49.538Z,16.45
2022-09-28T11:47:21.583Z,16.00
2022-09-28T11:50:03.503Z,11.13
2022-09-28T11:52:39.237Z,6.97
2022-09-28T11:55:09.580Z,15.10
2022-09-28T11:57:40.644Z,17.02
2022-09-28T12:00:17.818Z,9.18
2022-09-28T12:02:50.002Z,6.43
2022-09-28T12:05:25.677Z,8.85
2022-09-28T12:07:59.455Z,10.20
2022-09-28T12:11:16.926Z,10.38
2022-09-28T12:14:07.998Z,9.45
2022-09-28T12:17:04.117Z,11.05
2022-09-28T12:19:38.960Z,11.20
2022-09-28T12:22:18.786Z,6.72
2022-09-28T12:24:49.511Z,11.70
2022-09-28T12:27:25.829Z,9.55
2022-09-28T12:30:06.663Z,8.70
2022-09-28T12:32:38.877Z,7.38
2022-09-28T12:35:27.391Z,7.05
2022-09-28T12:38:03.413Z,8.15
2022-09-28T12:40:51.723Z,7.88
2022-09-28T12:43:29.428Z,8.60
2022-09-28T12:46:11.445Z,12.27
2022-09-28T12:49:04.157Z,7.82
2022-09-28T12:51:54.186Z,5.30
2022-09-28T12:54:45.253Z,5.75
2022-09-28T12:57:38.283Z,11.13
2022-09-28T13:00:12.134Z,9.63
2022-09-28T13:02:53.238Z,3.83
2022-09-28T13:05:29.968Z,3.10
2022-09-28T13:08:09.301Z,4.95
2022-09-28T13:11:07.713Z,4.53
2022-09-28T13:13:47.324Z,13.73
2022-09-28T13:16:20.671Z,6.07
2022-09-28T13:18:53.862Z,11.77
2022-09-28T13:21:23.796Z,4.53
2022-09-28T13:24:00.831Z,8.30
2022-09-28T13:26:39.341Z,10.20
2022-09-28T13:29:14.555Z,7.40
2022-09-28T13:31:47.943Z,5.68
2022-09-28T13:34:22.501Z,5.10
2022-09-28T13:37:11.230Z,3.58
2022-09-28T13:39:53.923Z,5.32
2022-09-28T13:42:28.268Z,2.63
2022-09-28T13:45:13.320Z,3.05
2022-09-28T13:48:01.511Z,3.20
2022-09-28T13:50:46.589Z,4.63
2022-09-28T13:53:39.657Z,2.65
2022-09-28T13:56:28.020Z,11.18
2022-09-28T13:59:06.464Z,3.42
2022-09-28T14:01:47.386Z,2.95
2022-09-28T14:04:27.311Z,2.28
2022-09-28T14:07:13.478Z,2.22
2022-09-28T14:10:10.263Z,1.10
2022-09-28T14:12:40.303Z,2.03
2022-09-28T14:15:30.164Z,1.27
2022-09-28T14:18:01.509Z,3.72
2022-09-28T14:20:32.598Z,5.40
2022-09-28T14:23:14.272Z,3.30
2022-09-28T14:25:47.773Z,5.22
2022-09-28T14:28:32.938Z,3.80
2022-09-28T14:31:02.888Z,2.17
2022-09-28T14:33:33.145Z,4.70
2022-09-28T14:36:10.053Z,5.20
2022-09-28T14:38:58.853Z,5.32
2022-09-28T14:41:28.868Z,4.60
2022-09-28T14:44:00.022Z,5.75
2022-09-28T14:46:31.098Z,5.38
2022-09-28T14:49:04.543Z,1.75
2022-09-28T14:51:36.134Z,6.68
2022-09-28T14:54:15.004Z,4.28
2022-09-28T14:56:58.274Z,5.75
2022-09-28T14:59:30.682Z,4.10
2022-09-28T15:02:09.722Z,5.32
2022-09-28T15:04:41.880Z,3.53
2022-09-28T15:07:41.335Z,1.88
2022-09-28T15:10:18.081Z,2.03
2022-09-28T15:12:48.578Z,2.65
2022-09-28T15:15:26.358Z,4.20
2022-09-28T15:17:59.966Z,7.43
2022-09-28T15:20:37.762Z,3.33
2022-09-28T15:23:07.719Z,4.90
2022-09-28T15:25:37.846Z,9.43
2022-09-28T15:28:19.689Z,1.90
2022-09-28T15:30:49.778Z,8.23
2022-09-28T15:33:45.028Z,3.22
2022-09-28T15:36:25.360Z,5.57
2022-09-28T15:39:04.319Z,3.03
2022-09-28T15:41:34.343Z,8.88
2022-09-28T15:44:10.563Z,7.43
2022-09-28T15:46:44.232Z,5.47
2022-09-28T15:49:25.010Z,3.65
2022-09-28T15:51:56.614Z,10.88
2022-09-28T15:54:27.521Z,1.85
2022-09-28T15:57:00.039Z,2.45
2022-09-28T15:59:32.091Z,4.13
2022-09-28T16:02:20.942Z,7.38
2022-09-28T16:05:01.969Z,6.78
2022-09-28T16:07:41.714Z,7.03
2022-09-28T16:10:15.382Z,8.63
2022-09-28T16:12:49.187Z,13.23
2022-09-28T16:15:23.302Z,9.00
2022-09-28T16:18:03.762Z,4.97
2022-09-28T16:20:37.683Z,10.88
2022-09-28T16:23:16.796Z,10.20
2022-09-28T16:25:53.766Z,8.25
2022-09-28T16:31:16.475Z,11.02
2022-09-28T16:33:49.850Z,8.38
2022-09-28T16:36:19.848Z,10.43
2022-09-28T16:38:49.854Z,12.25
2022-09-28T16:41:21.877Z,5.78
2022-09-28T16:43:58.123Z,13.40
2022-09-28T16:46:30.773Z,13.75
2022-09-28T16:49:01.067Z,17.38
2022-09-28T16:51:31.087Z,12.18
2022-09-28T16:54:20.234Z,10.68
2022-09-28T16:56:50.397Z,11.20
2022-09-28T16:59:20.409Z,15.32
2022-09-28T17:01:50.758Z,10.40
2022-09-28T17:04:20.893Z,11.32
2022-09-28T17:06:54.723Z,7.43
2022-09-28T17:09:24.832Z,8.07
2022-09-28T17:11:59.101Z,6.90
2022-09-28T17:14:29.415Z,8.07
2022-09-28T17:17:09.036Z,6.90
2022-09-28T17:19:40.734Z,9.82
2022-09-28T17:22:11.710Z,6.15
2022-09-28T17:24:41.913Z,5.20
2022-09-28T17:27:11.853Z,6.95
2022-09-28T17:29:41.808Z,7.30
2022-09-28T17:32:14.805Z,8.88
2022-09-28T17:34:51.546Z,8.77
2022-09-28T17:37:26.193Z,6.32
2022-09-28T17:39:56.225Z,5.82
2022-09-28T17:42:26.192Z,6.93
2022-09-28T17:44:56.151Z,4.75
2022-09-28T17:47:26.981Z,13.05
2022-09-28T17:49:59.628Z,5.95
2022-09-28T17:52:29.602Z,4.18
2022-09-28T17:54:59.589Z,4.93
2022-09-28T17:57:29.527Z,9.43
2022-09-28T17:59:59.578Z,3.50
2022-09-28T18:02:29.589Z,13.18
2022-09-28T18:04:59.664Z,4.53
2022-09-28T18:07:32.157Z,12.52
2022-09-28T18:10:02.606Z,7.22
2022-09-28T18:12:32.511Z,7.25
2022-09-28T18:15:02.402Z,5.38
2022-09-28T18:17:31.960Z,6.07
2022-09-28T18:20:01.379Z,15.27
2022-09-28T18:22:30.844Z,5.43
2022-09-28T18:25:00.218Z,4.80
2022-09-28T18:27:31.259Z,6.72
2022-09-28T18:30:00.706Z,4.28
2022-09-28T18:32:30.216Z,2.78
2022-09-28T18:34:59.618Z,4.20
2022-09-28T18:37:28.997Z,1.95
2022-09-28T18:39:58.443Z,4.50
2022-09-28T18:42:27.800Z,4.25
2022-09-28T18:44:57.226Z,2.63
2022-09-28T18:47:28.268Z,7.70
2022-09-28T18:49:58.844Z,6.50
2022-09-28T18:52:28.669Z,6.35
2022-09-28T18:54:58.060Z,4.07
2022-09-28T18:57:28.815Z,2.53
2022-09-28T18:59:58.779Z,3.60
2022-09-28T19:02:29.032Z,6.78
2022-09-28T19:04:59.541Z,2.85
2022-09-28T19:07:29.656Z,4.85
2022-09-28T19:09:59.658Z,3.05
2022-09-28T19:12:29.638Z,5.53
2022-09-28T19:15:00.815Z,7.50
2022-09-28T19:17:30.971Z,3.95
2022-09-28T19:20:00.924Z,6.30
2022-09-28T19:22:31.729Z,6.15
2022-09-28T19:25:01.721Z,6.53
2022-09-28T19:27:32.038Z,4.38
2022-09-28T19:30:02.054Z,7.47
2022-09-28T19:32:32.205Z,5.28
2022-09-28T19:35:03.159Z,9.77
2022-09-28T19:37:36.600Z,9.68
2022-09-28T19:40:09.949Z,5.75
2022-09-28T19:42:40.762Z,4.72
2022-09-28T19:45:12.053Z,4.47
2022-09-28T19:47:42.031Z,7.13
2022-09-28T19:50:12.068Z,3.28
2022-09-28T19:52:42.112Z,2.53
2022-09-28T19:55:12.105Z,3.30
2022-09-28T19:57:42.066Z,6.35
2022-09-28T20:00:12.787Z,10.90
2022-09-28T20:02:43.236Z,4.75
2022-09-28T20:05:13.204Z,4.53
2022-09-28T20:07:43.436Z,5.88
2022-09-28T20:10:13.500Z,1.25
2022-09-28T20:12:43.577Z,3.75
2022-09-28T20:15:13.646Z,2.60
2022-09-28T20:17:43.624Z,6.38
2022-09-28T20:20:13.659Z,4.88
2022-09-28T20:22:44.947Z,3.20
2022-09-28T20:25:14.882Z,4.05
2022-09-28T20:27:44.811Z,2.92
2022-09-28T20:30:15.319Z,3.40
2022-09-28T20:32:49.286Z,2.53
2022-09-28T20:35:30.604Z,6.05
2022-09-28T20:38:09.135Z,12.52
2022-09-28T20:40:40.656Z,4.13
2022-09-28T20:43:10.875Z,3.42
2022-09-28T20:45:40.820Z,4.95
2022-09-28T20:48:10.978Z,4.45
2022-09-28T20:50:43.355Z,3.63
2022-09-28T20:53:13.423Z,4.32
2022-09-28T20:55:43.524Z,3.22
2022-09-28T20:58:13.549Z,5.20
2022-09-28T21:00:44.098Z,8.10
2022-09-28T21:03:15.000Z,9.25
2022-09-28T21:05:45.024Z,8.73
2022-09-28T21:08:15.463Z,13.10
2022-09-28T21:10:46.144Z,11.80
2022-09-28T21:13:16.215Z,8.32
2022-09-28T21:15:46.362Z,10.57
2022-09-28T21:18:16.394Z,6.85
2022-09-28T21:20:48.112Z,7.35
2022-09-28T21:23:23.999Z,4.97
2022-09-28T21:26:05.919Z,5.88
2022-09-28T21:28:35.925Z,7.63
2022-09-28T21:31:09.074Z,4.10
2022-09-28T21:33:39.310Z,10.25
2022-09-28T21:36:09.762Z,6.03
2022-09-28T21:38:39.721Z,4.03
2022-09-28T21:41:09.841Z,2.42
2022-09-28T21:43:39.910Z,2.15
2022-09-28T21:46:09.988Z,3.10
2022-09-28T21:48:40.054Z,4.68
2022-09-28T21:51:10.413Z,5.07
2022-09-28T21:53:40.690Z,2.40
2022-09-28T21:56:12.013Z,4.82
2022-09-28T21:58:42.276Z,4.40
2022-09-28T22:01:18.094Z,3.20
2022-09-28T22:03:50.922Z,9.20
2022-09-28T22:06:22.036Z,7.95
2022-09-28T22:08:52.144Z,7.85
2022-09-28T22:11:22.969Z,1.88
2022-09-28T22:13:56.809Z,2.83
2022-09-28T22:16:27.569Z,7.25
2022-09-28T22:18:57.716Z,5.10
2022-09-28T22:21:31.285Z,5.10
2022-09-28T22:24:04.247Z,2.70
2022-09-28T22:26:34.976Z,17.40
2022-09-28T22:29:06.962Z,7.10
2022-09-28T22:31:38.584Z,12.13
2022-09-28T22:34:10.084Z,6.97
2022-09-28T22:36:40.217Z,5.60
2022-09-28T22:39:11.077Z,13.25
2022-09-28T22:41:41.205Z,4.97
2022-09-28T22:44:11.231Z,5.15
2022-09-28T22:46:41.232Z,5.55
2022-09-28T22:49:11.462Z,8.10
2022-09-28T22:51:41.747Z,5.40
2022-09-28T22:54:16.449Z,10.02
2022-09-28T22:56:46.716Z,7.80
2022-09-28T22:59:17.455Z,9.40
2022-09-28T23:01:47.559Z,6.63
2022-09-28T23:04:17.812Z,10.60
2022-09-28T23:06:48.039Z,13.20
2022-09-28T23:09:18.255Z,8.70
2022-09-28T23:11:48.371Z,11.38
2022-09-28T23:14:18.354Z,13.00
2022-09-28T23:16:48.380Z,15.43
2022-09-28T23:19:18.587Z,15.32
2022-09-28T23:21:48.903Z,12.45
2022-09-28T23:24:18.934Z,14.38
2022-09-28T23:26:49.010Z,14.07
2022-09-28T23:29:19.310Z,25.40
2022-09-28T23:31:49.517Z,11.65
2022-09-28T23:34:19.581Z,18.90
2022-09-28T23:36:49.639Z,20.75
2022-09-28T23:39:19.680Z,22.58
2022-09-28T23:41:49.805Z,27.52
2022-09-28T23:44:19.778Z,18.58
2022-09-28T23:46:50.062Z,27.70
2022-09-28T23:49:22.790Z,24.55
2022-09-28T23:51:53.016Z,29.65
2022-09-28T23:54:23.090Z,28.42
2022-09-28T23:56:53.046Z,22.50
2022-09-28T23:59:23.024Z,30.00
